createdAt,value
2018-06-04T00:00:16.190Z,89.22
2018-06-04T00:01:16.178Z,89.79
2018-06-04T00:02:16.156Z,89.93
2018-06-04T00:03:16.141Z,89.50
2018-06-04T00:04:16.125Z,89.40
2018-06-04T00:05:16.113Z,89.40
2018-06-04T00:06:16.096Z,89.36
2018-06-04T00:07:16.082Z,89.60
2018-06-04T00:08:16.067Z,89.02
2018-06-04T00:09:16.060Z,89.50
2018-06-04T00:10:16.037Z,89.12
2018-06-04T00:11:16.022Z,89.50
2018-06-04T00:12:16.005Z,89.60
2018-06-04T00:13:15.989Z,89.40
2018-06-04T00:14:15.977Z,89.40
2018-06-04T00:15:15.966Z,89.31
2018-06-04T00:16:15.945Z,89.60
2018-06-04T00:17:15.931Z,89.31
2018-06-04T00:18:15.914Z,89.79
2018-06-04T00:19:15.898Z,90.17
2018-06-04T00:20:15.886Z,89.98
2018-06-04T00:21:15.870Z,90.17
2018-06-04T00:22:15.854Z,89.79
2018-06-04T00:23:15.840Z,90.56
2018-06-04T00:24:15.824Z,90.17
2018-06-04T00:25:15.812Z,89.79
2018-06-04T00:26:15.793Z,89.60
2018-06-04T00:27:15.781Z,90.08
2018-06-04T00:28:15.766Z,90.37
2018-06-04T00:29:15.747Z,90.37
2018-06-04T00:30:15.732Z,90.17
2018-06-04T00:31:15.717Z,90.66
2018-06-04T00:32:15.721Z,90.56
2018-06-04T00:33:15.686Z,90.75
2018-06-04T00:34:15.674Z,90.46
2018-06-04T00:35:15.656Z,90.75
2018-06-04T00:36:15.640Z,90.84
2018-06-04T00:37:15.625Z,90.52
2018-06-04T00:38:15.610Z,90.75
2018-06-04T00:39:15.594Z,90.37
2018-06-04T00:40:15.578Z,91.09
2018-06-04T00:41:15.563Z,91.04
2018-06-04T00:42:15.550Z,90.56
2018-06-04T00:43:15.532Z,90.46
2018-06-04T00:44:15.518Z,90.52
2018-06-04T00:45:15.504Z,90.56
2018-06-04T00:46:15.487Z,90.52
2018-06-04T00:47:15.474Z,90.46
2018-06-04T00:48:15.482Z,90.46
2018-06-04T00:49:15.440Z,91.23
2018-06-04T00:50:15.427Z,91.13
2018-06-04T00:51:15.410Z,91.04
2018-06-04T00:52:15.398Z,91.38
2018-06-04T00:53:15.380Z,91.52
2018-06-04T00:54:15.363Z,91.47
2018-06-04T00:55:15.348Z,91.42
2018-06-04T00:56:15.333Z,90.99
2018-06-04T00:57:15.319Z,91.38
2018-06-04T00:58:15.301Z,91.76
2018-06-04T00:59:15.287Z,91.66
2018-06-04T01:00:15.272Z,91.19
2018-06-04T01:01:15.254Z,91.38
2018-06-04T01:02:15.240Z,91.57
2018-06-04T01:03:15.226Z,91.47
2018-06-04T01:04:15.211Z,91.47
2018-06-04T01:05:15.192Z,91.19
2018-06-04T01:06:15.180Z,91.19
2018-06-04T01:07:15.166Z,91.28
2018-06-04T01:08:15.149Z,91.47
2018-06-04T01:09:15.134Z,91.38
2018-06-04T01:10:15.116Z,91.66
2018-06-04T01:11:15.111Z,91.66
2018-06-04T01:12:15.092Z,91.66
2018-06-04T01:13:15.071Z,91.66
2018-06-04T01:14:15.056Z,91.38
2018-06-04T01:15:15.040Z,91.66
2018-06-04T01:16:15.027Z,91.09
2018-06-04T01:17:15.011Z,91.57
2018-06-04T01:18:14.998Z,91.66
2018-06-04T01:19:14.979Z,91.47
2018-06-04T01:20:14.962Z,91.47
2018-06-04T01:21:14.946Z,91.76
2018-06-04T01:22:14.932Z,91.76
2018-06-04T01:23:14.959Z,91.66
2018-06-04T01:24:14.928Z,91.38
2018-06-04T01:25:14.922Z,91.47
2018-06-04T01:26:14.869Z,92.43
2018-06-04T01:27:14.897Z,92.24
2018-06-04T01:28:14.868Z,92.14
2018-06-04T01:29:14.896Z,92.33
2018-06-04T01:30:14.830Z,92.14
2018-06-04T01:31:14.820Z,92.05
2018-06-04T01:32:14.830Z,92.24
2018-06-04T01:33:14.797Z,92.29
2018-06-04T01:34:14.771Z,92.29
2018-06-04T01:35:14.743Z,92.72
2018-06-04T01:36:14.742Z,93.01
2018-06-04T01:37:14.715Z,92.91
2018-06-04T01:38:14.694Z,93.01
2018-06-04T01:39:14.681Z,92.77
2018-06-04T01:40:14.681Z,92.63
2018-06-04T01:41:14.686Z,92.33
2018-06-04T01:42:14.646Z,91.96
2018-06-04T01:43:14.654Z,92.00
2018-06-04T01:44:14.626Z,92.10
2018-06-04T01:45:14.596Z,92.48
2018-06-04T01:46:14.575Z,92.29
2018-06-04T01:47:14.572Z,92.29
2018-06-04T01:48:14.556Z,91.81
2018-06-04T01:49:14.533Z,92.39
2018-06-04T01:50:14.526Z,92.29
2018-06-04T01:51:14.500Z,92.63
2018-06-04T01:52:14.491Z,92.58
2018-06-04T01:53:14.460Z,92.96
2018-06-04T01:54:14.469Z,92.96
2018-06-04T01:55:14.438Z,92.39
2018-06-04T01:56:14.415Z,92.96
2018-06-04T01:57:14.390Z,93.06
2018-06-04T01:58:14.372Z,93.25
2018-06-04T01:59:14.357Z,92.58
2018-06-04T02:00:14.344Z,92.68
2018-06-04T02:01:14.326Z,92.77
2018-06-04T02:02:14.309Z,93.25
2018-06-04T02:03:14.296Z,93.15
2018-06-04T02:04:14.280Z,93.35
2018-06-04T02:05:14.264Z,93.35
2018-06-04T02:06:14.276Z,93.25
2018-06-04T02:07:14.235Z,93.06
2018-06-04T02:08:14.217Z,93.25
2018-06-04T02:09:14.200Z,93.25
2018-06-04T02:10:14.187Z,93.54
2018-06-04T02:11:14.170Z,93.44
2018-06-04T02:12:14.155Z,92.68
2018-06-04T02:13:14.139Z,92.68
2018-06-04T02:14:14.125Z,93.15
2018-06-04T02:15:14.109Z,93.35
2018-06-04T02:16:14.091Z,93.44
2018-06-04T02:17:14.077Z,93.54
2018-06-04T02:18:14.062Z,93.44
2018-06-04T02:19:14.044Z,93.25
2018-06-04T02:20:14.033Z,93.44
2018-06-04T02:21:14.025Z,93.06
2018-06-04T02:22:13.998Z,92.86
2018-06-04T02:23:13.982Z,92.68
2018-06-04T02:24:13.968Z,93.25
2018-06-04T02:25:13.953Z,93.11
2018-06-04T02:26:13.940Z,93.44
2018-06-04T02:27:13.971Z,93.68
2018-06-04T02:28:13.905Z,93.88
2018-06-04T02:29:13.889Z,93.78
2018-06-04T02:30:13.872Z,93.97
2018-06-04T02:31:13.856Z,93.88
2018-06-04T02:32:13.842Z,94.26
2018-06-04T02:33:13.825Z,93.88
2018-06-04T02:34:13.810Z,93.88
2018-06-04T02:35:13.820Z,93.88
2018-06-04T02:36:13.781Z,93.97
2018-06-04T02:37:13.765Z,93.78
2018-06-04T02:38:13.746Z,93.97
2018-06-04T02:39:13.738Z,93.88
2018-06-04T02:40:13.716Z,94.07
2018-06-04T02:41:13.700Z,94.26
2018-06-04T02:42:13.685Z,93.97
2018-06-04T02:43:13.669Z,94.54
2018-06-04T02:44:13.653Z,94.54
2018-06-04T02:45:13.636Z,94.84
2018-06-04T02:46:13.625Z,94.45
2018-06-04T02:47:13.605Z,94.74
2018-06-04T02:48:13.593Z,94.26
2018-06-04T02:49:13.574Z,94.07
2018-06-04T02:50:13.584Z,94.17
2018-06-04T02:51:13.543Z,94.35
2018-06-04T02:52:13.529Z,94.17
2018-06-04T02:53:13.512Z,94.26
2018-06-04T02:54:13.494Z,94.17
2018-06-04T02:55:13.480Z,94.07
2018-06-04T02:56:13.466Z,94.35
2018-06-04T02:57:13.450Z,94.17
2018-06-04T02:58:13.432Z,94.17
2018-06-04T02:59:13.416Z,94.26
2018-06-04T03:00:13.423Z,94.07
2018-06-04T03:01:13.384Z,94.74
2018-06-04T03:02:13.371Z,94.35
2018-06-04T03:03:13.354Z,94.64
2018-06-04T03:04:13.337Z,94.64
2018-06-04T03:05:13.320Z,94.64
2018-06-04T03:06:13.304Z,95.31
2018-06-04T03:07:13.289Z,95.51
2018-06-04T03:08:13.273Z,95.12
2018-06-04T03:09:13.258Z,94.74
2018-06-04T03:10:13.245Z,94.45
2018-06-04T03:11:13.231Z,94.64
2018-06-04T03:12:13.269Z,94.35
2018-06-04T03:13:13.258Z,94.35
2018-06-04T03:14:13.179Z,93.97
2018-06-04T03:15:13.161Z,94.07
2018-06-04T03:16:13.155Z,94.26
2018-06-04T03:17:13.132Z,93.97
2018-06-04T03:18:13.112Z,94.17
2018-06-04T03:19:13.098Z,93.78
2018-06-04T03:20:13.082Z,94.17
2018-06-04T03:21:13.067Z,94.07
2018-06-04T03:22:13.050Z,93.88
2018-06-04T03:23:13.033Z,93.88
2018-06-04T03:24:13.021Z,94.45
2018-06-04T03:25:13.001Z,94.07
2018-06-04T03:26:12.985Z,93.88
2018-06-04T03:27:12.971Z,94.54
2018-06-04T03:28:12.955Z,94.93
2018-06-04T03:29:12.937Z,95.31
2018-06-04T03:30:12.922Z,95.31
2018-06-04T03:31:12.907Z,95.03
2018-06-04T03:32:12.891Z,95.56
2018-06-04T03:33:12.874Z,95.26
2018-06-04T03:34:12.863Z,95.26
2018-06-04T03:35:12.843Z,94.98
2018-06-04T03:36:12.828Z,95.41
2018-06-04T03:37:12.810Z,95.26
2018-06-04T03:38:12.798Z,95.56
2018-06-04T03:39:12.778Z,95.56
2018-06-04T03:40:12.766Z,95.36
2018-06-04T03:41:12.747Z,95.60
2018-06-04T03:42:12.730Z,95.03
2018-06-04T03:43:12.717Z,95.21
2018-06-04T03:44:12.699Z,95.21
2018-06-04T03:45:12.682Z,95.12
2018-06-04T03:46:12.668Z,95.41
2018-06-04T03:47:12.650Z,95.56
2018-06-04T03:48:12.635Z,94.98
2018-06-04T03:49:12.618Z,95.75
2018-06-04T03:50:12.603Z,95.56
2018-06-04T03:51:12.642Z,95.89
2018-06-04T03:52:12.577Z,95.70
2018-06-04T03:53:12.553Z,95.51
2018-06-04T03:54:12.543Z,95.60
2018-06-04T03:55:12.521Z,95.26
2018-06-04T03:56:12.505Z,95.21
2018-06-04T03:57:12.488Z,95.70
2018-06-04T03:58:12.480Z,95.46
2018-06-04T03:59:12.458Z,96.03
2018-06-04T04:00:12.440Z,95.94
2018-06-04T04:01:12.426Z,96.42
2018-06-04T04:02:12.409Z,96.03
2018-06-04T04:03:12.393Z,96.42
2018-06-04T04:04:12.376Z,96.22
2018-06-04T04:05:12.362Z,96.85
2018-06-04T04:06:12.405Z,96.94
2018-06-04T04:07:12.404Z,97.09
2018-06-04T04:08:12.645Z,96.89
2018-06-04T04:09:12.453Z,96.75
2018-06-04T04:10:12.368Z,96.94
2018-06-04T04:11:12.264Z,96.66
2018-06-04T04:12:12.249Z,97.14
2018-06-04T04:13:12.300Z,97.04
2018-06-04T04:14:12.216Z,96.75
2018-06-04T04:15:14.134Z,96.85
2018-06-04T04:16:12.215Z,97.14
2018-06-04T04:17:12.187Z,96.94
2018-06-04T04:18:12.204Z,97.14
2018-06-04T04:19:12.143Z,96.75
2018-06-04T04:20:12.127Z,96.94
2018-06-04T04:21:12.103Z,97.23
2018-06-04T04:22:12.090Z,97.14
2018-06-04T04:23:12.074Z,96.75
2018-06-04T04:24:12.055Z,96.85
2018-06-04T04:25:12.039Z,96.85
2018-06-04T04:26:12.029Z,97.04
2018-06-04T04:27:12.009Z,96.27
2018-06-04T04:28:11.994Z,96.56
2018-06-04T04:29:11.977Z,97.04
2018-06-04T04:30:11.960Z,96.85
2018-06-04T04:31:11.944Z,96.94
2018-06-04T04:32:11.951Z,96.94
2018-06-04T04:33:11.980Z,96.85
2018-06-04T04:34:11.894Z,96.94
2018-06-04T04:35:12.078Z,96.85
2018-06-04T04:36:11.871Z,96.80
2018-06-04T04:37:11.876Z,96.22
2018-06-04T04:38:11.831Z,96.32
2018-06-04T04:39:11.815Z,96.42
2018-06-04T04:40:11.802Z,96.22
2018-06-04T04:41:11.783Z,96.22
2018-06-04T04:42:11.871Z,96.32
2018-06-04T04:43:11.774Z,96.13
2018-06-04T04:44:11.740Z,96.32
2018-06-04T04:45:11.722Z,95.65
2018-06-04T04:46:11.705Z,95.65
2018-06-04T04:47:11.688Z,95.55
2018-06-04T04:48:11.752Z,95.46
2018-06-04T04:49:11.658Z,95.65
2018-06-04T04:50:11.700Z,95.46
2018-06-04T04:51:11.625Z,95.36
2018-06-04T04:52:11.613Z,95.36
2018-06-04T04:53:11.591Z,95.84
2018-06-04T04:54:11.579Z,95.94
2018-06-04T04:55:11.589Z,96.22
2018-06-04T04:56:11.547Z,96.03
2018-06-04T04:57:11.529Z,96.32
2018-06-04T04:58:11.513Z,96.03
2018-06-04T04:59:11.499Z,96.42
2018-06-04T05:00:11.482Z,96.22
2018-06-04T05:01:11.466Z,96.13
2018-06-04T05:02:11.451Z,96.32
2018-06-04T05:03:11.444Z,96.47
2018-06-04T05:04:11.422Z,96.08
2018-06-04T05:05:11.403Z,96.66
2018-06-04T05:06:11.468Z,96.56
2018-06-04T05:07:11.374Z,96.27
2018-06-04T05:08:11.393Z,96.66
2018-06-04T05:09:11.341Z,96.47
2018-06-04T05:10:11.325Z,96.18
2018-06-04T05:11:11.309Z,96.56
2018-06-04T05:12:11.294Z,96.08
2018-06-04T05:13:11.276Z,96.56
2018-06-04T05:14:11.263Z,96.37
2018-06-04T05:15:11.256Z,96.37
2018-06-04T05:16:11.231Z,96.37
2018-06-04T05:17:11.216Z,96.18
2018-06-04T05:18:11.200Z,96.18
2018-06-04T05:19:11.185Z,96.08
2018-06-04T05:20:11.167Z,96.18
2018-06-04T05:21:11.153Z,96.22
2018-06-04T05:22:11.136Z,95.65
2018-06-04T05:23:11.121Z,95.94
2018-06-04T05:24:11.105Z,96.51
2018-06-04T05:25:11.091Z,96.32
2018-06-04T05:26:11.076Z,95.75
2018-06-04T05:27:11.059Z,95.65
2018-06-04T05:28:11.044Z,95.45
2018-06-04T05:29:11.028Z,95.84
2018-06-04T05:30:11.012Z,95.45
2018-06-04T05:31:10.997Z,95.45
2018-06-04T05:32:10.982Z,95.17
2018-06-04T05:33:10.968Z,95.17
2018-06-04T05:34:10.952Z,94.88
2018-06-04T05:35:10.936Z,95.17
2018-06-04T05:36:10.921Z,94.78
2018-06-04T05:37:10.936Z,94.49
2018-06-04T05:38:10.892Z,94.78
2018-06-04T05:39:10.874Z,94.64
2018-06-04T05:40:10.864Z,94.83
2018-06-04T05:41:10.844Z,94.64
2018-06-04T05:42:10.827Z,94.64
2018-06-04T05:43:10.813Z,94.54
2018-06-04T05:44:10.800Z,94.45
2018-06-04T05:45:10.781Z,94.64
2018-06-04T05:46:10.767Z,94.93
2018-06-04T05:47:10.752Z,94.83
2018-06-04T05:48:10.743Z,95.21
2018-06-04T05:49:10.720Z,95.50
2018-06-04T05:50:10.705Z,94.83
2018-06-04T05:51:10.690Z,95.70
2018-06-04T05:52:10.679Z,95.70
2018-06-04T05:53:10.659Z,95.79
2018-06-04T05:54:10.644Z,95.40
2018-06-04T05:55:10.631Z,95.50
2018-06-04T05:56:10.638Z,95.40
2018-06-04T05:57:10.598Z,95.40
2018-06-04T05:58:10.583Z,95.50
2018-06-04T05:59:10.569Z,95.75
2018-06-04T06:00:10.555Z,95.12
2018-06-04T06:01:10.540Z,95.26
2018-06-04T06:02:10.525Z,94.88
2018-06-04T06:03:10.509Z,95.26
2018-06-04T06:04:10.494Z,95.45
2018-06-04T06:05:10.477Z,94.88
2018-06-04T06:06:10.460Z,95.55
2018-06-04T06:07:10.447Z,94.78
2018-06-04T06:08:10.435Z,95.07
2018-06-04T06:09:10.474Z,95.07
2018-06-04T06:10:10.399Z,94.59
2018-06-04T06:11:10.387Z,94.68
2018-06-04T06:12:10.371Z,94.68
2018-06-04T06:13:10.355Z,94.73
2018-06-04T06:14:10.402Z,94.30
2018-06-04T06:15:10.328Z,94.06
2018-06-04T06:16:10.311Z,93.58
2018-06-04T06:17:10.293Z,93.68
2018-06-04T06:18:10.281Z,93.58
2018-06-04T06:19:10.265Z,93.58
2018-06-04T06:20:10.251Z,93.00
2018-06-04T06:21:10.236Z,93.10
2018-06-04T06:22:10.220Z,92.81
2018-06-04T06:23:10.205Z,92.23
2018-06-04T06:24:10.193Z,92.04
2018-06-04T06:25:10.182Z,92.23
2018-06-04T06:26:10.159Z,92.43
2018-06-04T06:27:10.171Z,92.71
2018-06-04T06:28:10.129Z,93.29
2018-06-04T06:29:10.115Z,93.00
2018-06-04T06:30:26.480Z,92.91
2018-06-04T06:32:03.490Z,93.00
2018-06-04T06:33:03.427Z,93.00
2018-06-04T06:34:56.772Z,92.28
2018-06-04T06:35:56.785Z,92.38
2018-06-04T06:37:50.183Z,91.60
2018-06-04T06:38:50.097Z,91.60
2018-06-04T06:40:43.643Z,91.89
2018-06-04T06:41:43.409Z,91.89
2018-06-04T06:43:37.795Z,91.60
2018-06-04T06:44:37.773Z,91.41
2018-06-04T06:46:32.181Z,90.55
2018-06-04T06:47:32.098Z,90.73
2018-06-04T06:49:26.443Z,90.83
2018-06-04T06:50:26.483Z,90.55
2018-06-04T06:52:19.869Z,90.45
2018-06-04T06:53:19.819Z,89.87
2018-06-04T06:55:13.140Z,89.87
2018-06-04T06:56:13.080Z,89.63
2018-06-04T06:58:12.212Z,89.15
2018-06-04T06:59:12.150Z,89.72
2018-06-04T07:01:05.544Z,89.92
2018-06-04T07:02:05.476Z,89.24
2018-06-04T07:03:58.849Z,89.82
2018-06-04T07:04:58.852Z,89.63
2018-06-04T07:06:56.221Z,89.72
2018-06-04T07:07:56.157Z,89.34
2018-06-04T07:09:50.508Z,89.43
2018-06-04T07:10:50.484Z,89.43
2018-06-04T07:12:44.879Z,89.43
2018-06-04T07:13:44.810Z,89.15
2018-06-04T07:15:38.162Z,88.38
2018-06-04T07:16:38.165Z,88.85
2018-06-04T07:18:31.568Z,89.05
2018-06-04T07:19:31.482Z,89.43
2018-06-04T07:21:25.903Z,88.95
2018-06-04T07:22:25.829Z,88.85
2018-06-04T07:24:19.175Z,88.76
2018-06-04T07:25:19.159Z,89.43
2018-06-04T07:27:12.524Z,88.57
2018-06-04T07:28:12.459Z,89.24
2018-06-04T07:30:05.806Z,89.15
2018-06-04T07:31:05.787Z,89.05
2018-06-04T07:32:59.183Z,89.05
2018-06-04T07:33:59.119Z,88.51
2018-06-04T07:35:52.466Z,88.32
2018-06-04T07:36:52.448Z,88.23
2018-06-04T07:38:45.841Z,88.38
2018-06-04T07:39:45.774Z,88.61
2018-06-04T07:41:39.174Z,88.51
2018-06-04T07:42:39.106Z,88.81
2018-06-04T07:44:32.501Z,87.94
2018-06-04T07:45:32.434Z,87.17
2018-06-04T07:47:25.829Z,87.46
2018-06-04T07:48:25.762Z,87.36
2018-06-04T07:50:19.123Z,86.88
2018-06-04T07:51:19.092Z,87.26
2018-06-04T07:53:13.485Z,87.46
2018-06-04T07:54:13.424Z,87.65
2018-06-04T07:55:13.407Z,87.46
2018-06-04T07:56:13.394Z,87.94
2018-06-04T07:57:13.422Z,87.98
2018-06-04T07:58:13.363Z,87.74
2018-06-04T07:59:13.349Z,87.74
2018-06-04T08:00:13.334Z,87.84
2018-06-04T08:01:13.321Z,87.50
2018-06-04T08:02:13.311Z,87.40
2018-06-04T08:03:13.290Z,86.49
2018-06-04T08:04:13.275Z,86.63
2018-06-04T08:05:13.264Z,86.15
2018-06-04T08:06:13.296Z,86.35
2018-06-04T08:07:13.240Z,86.44
2018-06-04T08:08:13.221Z,86.44
2018-06-04T08:09:13.215Z,87.02
2018-06-04T08:10:13.203Z,86.92
2018-06-04T08:11:13.177Z,87.12
2018-06-04T08:12:13.164Z,86.15
2018-06-04T08:13:13.148Z,85.67
2018-06-04T08:14:13.134Z,85.38
2018-06-04T08:15:13.121Z,85.28
2018-06-04T08:16:13.121Z,84.99
2018-06-04T08:17:13.094Z,85.13
2018-06-04T08:18:13.077Z,84.55
2018-06-04T08:19:13.063Z,84.03
2018-06-04T08:20:13.058Z,84.36
2018-06-04T08:21:13.038Z,83.94
2018-06-04T08:22:13.023Z,84.17
2018-06-04T08:23:13.006Z,84.46
2018-06-04T08:24:12.994Z,83.88
2018-06-04T08:25:12.980Z,83.88
2018-06-04T08:26:12.967Z,83.98
2018-06-04T08:27:12.950Z,83.50
2018-06-04T08:28:12.941Z,83.01
2018-06-04T08:29:12.945Z,83.88
2018-06-04T08:30:12.914Z,83.20
2018-06-04T08:31:12.896Z,83.40
2018-06-04T08:32:12.884Z,83.30
2018-06-04T08:33:12.868Z,83.30
2018-06-04T08:34:12.853Z,83.40
2018-06-04T08:35:12.838Z,82.05
2018-06-04T08:36:12.824Z,81.85
2018-06-04T08:37:12.809Z,81.47
2018-06-04T08:38:12.796Z,81.02
2018-06-04T08:39:12.783Z,80.16
2018-06-04T08:40:12.778Z,78.29
2018-06-04T08:41:12.754Z,78.61
2018-06-04T08:42:12.741Z,79.58
2018-06-04T08:43:12.725Z,80.16
2018-06-04T08:44:12.731Z,80.54
2018-06-04T08:45:12.699Z,80.64
2018-06-04T08:46:12.685Z,81.02
2018-06-04T08:47:12.672Z,81.02
2018-06-04T08:48:12.657Z,80.54
2018-06-04T08:49:12.643Z,79.58
2018-06-04T08:50:12.627Z,79.19
2018-06-04T08:51:12.615Z,79.77
2018-06-04T08:52:12.600Z,80.06
2018-06-04T08:53:12.591Z,80.06
2018-06-04T08:54:12.575Z,80.68
2018-06-04T08:55:12.563Z,79.68
2018-06-04T08:56:12.551Z,79.19
2018-06-04T08:57:12.533Z,78.33
2018-06-04T08:58:12.520Z,78.08
2018-06-04T08:59:12.505Z,78.17
2018-06-04T09:00:12.493Z,78.27
2018-06-04T09:01:12.477Z,77.36
2018-06-04T09:02:12.466Z,77.69
2018-06-04T09:03:12.455Z,77.98
2018-06-04T09:04:12.436Z,77.88
2018-06-04T09:05:12.424Z,77.78
2018-06-04T09:06:12.415Z,78.36
2018-06-04T09:07:12.399Z,78.75
2018-06-04T09:08:12.382Z,77.69
2018-06-04T09:09:12.368Z,77.92
2018-06-04T09:10:12.358Z,77.83
2018-06-04T09:11:12.342Z,77.69
2018-06-04T09:12:12.328Z,76.18
2018-06-04T09:13:12.312Z,77.63
2018-06-04T09:14:12.300Z,77.53
2018-06-04T09:15:12.294Z,77.25
2018-06-04T09:16:12.273Z,77.63
2018-06-04T09:17:12.260Z,77.92
2018-06-04T09:18:12.247Z,77.73
2018-06-04T09:19:12.233Z,77.44
2018-06-04T09:20:12.218Z,77.53
2018-06-04T09:21:12.204Z,77.63
2018-06-04T09:22:12.192Z,76.51
2018-06-04T09:23:12.186Z,76.90
2018-06-04T09:24:12.164Z,76.61
2018-06-04T09:25:12.152Z,76.42
2018-06-04T09:26:12.147Z,76.70
2018-06-04T09:27:12.124Z,77.38
2018-06-04T09:28:12.111Z,76.51
2018-06-04T09:29:12.097Z,76.51
2018-06-04T09:30:12.083Z,76.64
2018-06-04T09:31:12.070Z,76.42
2018-06-04T09:32:12.095Z,75.35
2018-06-04T09:33:12.041Z,74.58
2018-06-04T09:34:12.029Z,75.06
2018-06-04T09:35:12.018Z,74.32
2018-06-04T09:36:12.004Z,74.48
2018-06-04T09:37:11.991Z,74.81
2018-06-04T09:38:11.975Z,74.71
2018-06-04T09:39:11.965Z,75.20
2018-06-04T09:40:11.949Z,74.90
2018-06-04T09:41:11.939Z,72.00
2018-06-04T09:42:11.927Z,72.24
2018-06-04T09:43:11.914Z,73.20
2018-06-04T09:44:11.899Z,73.30
2018-06-04T09:45:11.886Z,73.39
2018-06-04T09:46:11.873Z,73.30
2018-06-04T09:47:11.861Z,73.01
2018-06-04T09:48:11.853Z,71.36
2018-06-04T09:49:11.834Z,71.36
2018-06-04T09:50:11.824Z,70.88
2018-06-04T09:51:11.813Z,70.78
2018-06-04T09:52:11.795Z,70.98
2018-06-04T09:53:11.783Z,70.88
2018-06-04T09:54:11.771Z,71.36
2018-06-04T09:55:11.766Z,71.46
2018-06-04T09:56:11.745Z,72.52
2018-06-04T09:57:11.733Z,71.40
2018-06-04T09:58:11.719Z,70.82
2018-06-04T09:59:11.707Z,70.72
2018-06-04T10:00:11.694Z,70.62
2018-06-04T10:01:11.680Z,70.62
2018-06-04T10:02:11.687Z,69.79
2018-06-04T10:03:11.680Z,70.43
2018-06-04T10:04:11.641Z,70.27
2018-06-04T10:05:11.628Z,71.14
2018-06-04T10:06:11.618Z,71.14
2018-06-04T10:07:11.607Z,71.69
2018-06-04T10:08:11.598Z,72.17
2018-06-04T10:09:11.580Z,72.08
2018-06-04T10:10:11.570Z,72.46
2018-06-04T10:11:11.557Z,72.66
2018-06-04T10:12:11.543Z,72.75
2018-06-04T10:13:11.532Z,72.66
2018-06-04T10:14:11.519Z,73.24
2018-06-04T10:15:11.507Z,72.95
2018-06-04T10:16:11.492Z,72.66
2018-06-04T10:17:11.481Z,72.60
2018-06-04T10:18:11.481Z,72.11
2018-06-04T10:19:11.457Z,72.50
2018-06-04T10:20:11.448Z,71.04
2018-06-04T10:21:11.444Z,71.44
2018-06-04T10:22:11.422Z,71.34
2018-06-04T10:23:11.406Z,71.72
2018-06-04T10:24:11.398Z,71.34
2018-06-04T10:25:11.383Z,71.14
2018-06-04T10:26:11.373Z,71.14
2018-06-04T10:27:11.360Z,71.14
2018-06-04T10:28:11.346Z,70.86
2018-06-04T10:29:11.333Z,71.24
2018-06-04T10:30:11.321Z,71.72
2018-06-04T10:31:11.311Z,71.14
2018-06-04T10:32:11.299Z,70.86
2018-06-04T10:33:11.285Z,70.95
2018-06-04T10:34:11.275Z,71.44
2018-06-04T10:35:11.270Z,71.72
2018-06-04T10:36:11.248Z,71.62
2018-06-04T10:37:11.237Z,71.44
2018-06-04T10:38:11.224Z,71.44
2018-06-04T10:39:11.213Z,71.53
2018-06-04T10:40:11.203Z,71.44
2018-06-04T10:41:11.187Z,71.62
2018-06-04T10:42:11.175Z,71.14
2018-06-04T10:43:11.164Z,69.67
2018-06-04T10:44:11.149Z,67.05
2018-06-04T10:45:11.138Z,64.40
2018-06-04T10:46:11.133Z,62.71
2018-06-04T10:47:11.114Z,60.99
2018-06-04T10:48:11.102Z,57.74
2018-06-04T10:49:11.092Z,57.21
2018-06-04T10:50:11.081Z,55.68
2018-06-04T10:51:11.069Z,55.22
2018-06-04T10:52:11.059Z,54.27
2018-06-04T10:53:11.052Z,52.64
2018-06-04T10:54:11.039Z,52.90
2018-06-04T10:55:11.030Z,52.80
2018-06-04T10:56:11.089Z,54.50
2018-06-04T10:57:11.092Z,55.26
2018-06-04T10:58:11.011Z,55.58
2018-06-04T10:59:10.996Z,53.68
2018-06-04T11:00:10.987Z,52.90
2018-06-04T11:01:10.980Z,51.56
2018-06-04T11:02:10.971Z,52.75
2018-06-04T11:03:10.963Z,54.77
2018-06-04T11:04:10.955Z,55.69
2018-06-04T11:05:10.970Z,56.05
2018-06-04T11:06:10.965Z,54.97
2018-06-04T11:07:10.937Z,54.44
2018-06-04T11:08:10.972Z,52.15
2018-06-04T11:09:10.917Z,51.00
2018-06-04T11:10:10.912Z,50.27
2018-06-04T11:11:10.919Z,49.77
2018-06-04T11:12:10.897Z,49.02
2018-06-04T11:13:10.891Z,50.24
2018-06-04T11:14:10.888Z,50.88
2018-06-04T11:15:10.905Z,52.29
2018-06-04T11:16:10.876Z,52.83
2018-06-04T11:17:10.897Z,54.65
2018-06-04T11:18:10.863Z,54.19
2018-06-04T11:19:10.857Z,53.70
2018-06-04T11:20:10.850Z,52.22
2018-06-04T11:21:10.878Z,51.20
2018-06-04T11:22:10.838Z,50.05
2018-06-04T11:23:10.888Z,51.17
2018-06-04T11:24:10.827Z,52.12
2018-06-04T11:25:10.822Z,51.20
2018-06-04T11:26:10.817Z,49.48
2018-06-04T11:27:10.815Z,48.14
2018-06-04T11:28:10.806Z,47.77
2018-06-04T11:29:10.821Z,47.89
2018-06-04T11:30:10.794Z,46.42
2018-06-04T11:31:10.792Z,47.55
2018-06-04T11:32:10.787Z,48.90
2018-06-04T11:33:10.783Z,48.14
2018-06-04T11:34:10.802Z,46.79
2018-06-04T11:35:10.773Z,45.73
2018-06-04T11:36:10.771Z,45.83
2018-06-04T11:37:10.782Z,46.30
2018-06-04T11:38:10.766Z,45.56
2018-06-04T11:39:10.758Z,45.93
2018-06-04T11:40:10.763Z,47.55
2018-06-04T11:41:10.748Z,48.14
2018-06-04T11:42:10.745Z,48.38
2018-06-04T11:43:10.752Z,49.73
2018-06-04T11:44:12.151Z,49.36
2018-06-04T11:45:10.761Z,49.07
2018-06-04T11:46:10.751Z,47.45
2018-06-04T11:47:10.732Z,46.79
2018-06-04T11:48:10.737Z,46.33
2018-06-04T11:49:10.750Z,45.27
2018-06-04T11:50:10.759Z,44.51
2018-06-04T11:51:10.727Z,44.53
2018-06-04T11:52:10.713Z,43.66
2018-06-04T11:53:10.709Z,42.58
2018-06-04T11:54:10.761Z,42.39
2018-06-04T11:55:10.708Z,43.27
2018-06-04T11:56:10.699Z,42.68
2018-06-04T11:57:10.698Z,42.11
2018-06-04T11:58:10.696Z,41.16
2018-06-04T11:59:10.695Z,40.37
2018-06-04T12:00:10.692Z,42.57
2018-06-04T12:01:10.693Z,43.88
2018-06-04T12:02:10.735Z,44.15
2018-06-04T12:03:10.688Z,45.57
2018-06-04T12:04:10.697Z,47.28
2018-06-04T12:05:10.694Z,48.14
2018-06-04T12:06:10.683Z,48.26
2018-06-04T12:07:10.736Z,47.53
2018-06-04T12:08:10.678Z,49.22
2018-06-04T12:09:10.697Z,49.02
2018-06-04T12:10:10.729Z,47.50
2018-06-04T12:11:10.678Z,45.79
2018-06-04T12:12:10.666Z,46.06
2018-06-04T12:13:10.666Z,47.38
2018-06-04T12:14:10.661Z,48.28
2018-06-04T12:15:10.657Z,46.84
2018-06-04T12:16:10.663Z,48.16
2018-06-04T12:17:10.658Z,48.14
2018-06-04T12:18:10.662Z,49.29
2018-06-04T12:19:10.715Z,49.54
2018-06-04T12:20:10.646Z,50.09
2018-06-04T12:21:10.639Z,51.46
2018-06-04T12:22:10.654Z,52.89
2018-06-04T12:23:10.635Z,52.67
2018-06-04T12:24:10.629Z,52.67
2018-06-04T12:25:10.623Z,54.01
2018-06-04T12:26:10.643Z,54.40
2018-06-04T12:27:10.618Z,54.66
2018-06-04T12:28:10.636Z,54.76
2018-06-04T12:29:10.602Z,54.23
2018-06-04T12:30:10.599Z,52.77
2018-06-04T12:31:10.595Z,52.19
2018-06-04T12:32:10.586Z,51.95
2018-06-04T12:33:10.579Z,49.85
2018-06-04T12:34:10.573Z,48.90
2018-06-04T12:35:10.570Z,48.51
2018-06-04T12:36:10.563Z,49.66
2018-06-04T12:37:10.565Z,49.41
2018-06-04T12:38:10.559Z,46.97
2018-06-04T12:39:10.552Z,48.02
2018-06-04T12:40:10.599Z,48.58
2018-06-04T12:41:10.536Z,48.71
2018-06-04T12:42:10.539Z,47.95
2018-06-04T12:43:10.956Z,47.58
2018-06-04T12:44:10.614Z,46.88
2018-06-04T12:45:10.516Z,46.89
2018-06-04T12:46:10.529Z,46.23
2018-06-04T12:47:10.510Z,45.94
2018-06-04T12:48:10.545Z,46.58
2018-06-04T12:49:10.498Z,46.97
2018-06-04T12:50:10.494Z,47.09
2018-06-04T12:51:10.492Z,48.80
2018-06-04T12:52:10.484Z,49.17
2018-06-04T12:53:10.483Z,49.54
2018-06-04T12:54:10.480Z,50.09
2018-06-04T12:55:10.473Z,50.87
2018-06-04T12:56:10.517Z,50.95
2018-06-04T12:57:10.517Z,50.07
2018-06-04T12:58:10.480Z,50.07
2018-06-04T12:59:10.455Z,50.19
2018-06-04T13:00:10.448Z,49.22
2018-06-04T13:01:10.443Z,48.83
2018-06-04T13:02:10.439Z,49.34
2018-06-04T13:03:10.432Z,48.95
2018-06-04T13:04:10.427Z,47.97
2018-06-04T13:05:10.422Z,47.90
2018-06-04T13:06:10.418Z,48.39
2018-06-04T13:07:10.415Z,49.24
2018-06-04T13:08:10.409Z,49.83
2018-06-04T13:09:10.405Z,50.24
2018-06-04T13:10:10.401Z,50.92
2018-06-04T13:11:10.397Z,48.75
2018-06-04T13:12:10.423Z,48.49
2018-06-04T13:13:10.387Z,49.66
2018-06-04T13:14:10.384Z,49.15
2018-06-04T13:15:10.379Z,50.41
2018-06-04T13:16:10.376Z,51.36
2018-06-04T13:17:10.372Z,51.14
2018-06-04T13:18:10.367Z,51.14